Nearby METAR Reports

 

ENCN - Kristiansand/Kje, Norway
Distance from station: N 17km
Opdateer: 05/07/2022 21:20
Helder
Helder
 Wind van WNW
Wind: WNW 15 km/h
Temperatuur: 16°C
Doupunt: 6°C
Humiditeit: 52%
Druk: 1014 hPa
Obsomming: Helder
Visibility: greater than 10 km
2022/07/05 19:20 ENCN 051920Z 29008KT 250V330 CAVOK 16/06 Q1014
EKSN - Sindal Airport, Denmark
Distance from station: OSO 145km
Opdateer: 30/12/2021 14:50
NOT Current
Mist, Meestal bewolk
Mist, Meestal bewolk
 Wind van SW
Wind: SW 26 km/h
Temperatuur: 7°C
Wind Chill: 3°C
Doupunt: 7°C
Humiditeit: 100%
Druk: 999 hPa
Obsomming: Mist
Clouds: Meestal bewolk
Visibility: 5 km
Cloud details: Gedeeltelik bewolk 183 m
Meestal bewolk 244 m
2021/12/30 13:50 EKSN 301350Z 23014KT 4500 BR SCT006 BKN008 07/07 Q0999
 
EKYT - Alborg, Denmark
Distance from station: SO 153km
Opdateer: 05/07/2022 21:20
Few Clouds
Few Clouds
 Wind van W
Wind: W 22 km/h
Temperatuur: 14°C
Doupunt: 11°C
Humiditeit: 82%
Druk: 1016 hPa
Clouds: Few Clouds
Visibility: 10 km
Cloud details: Few Clouds 2134 m
2022/07/05 19:20 EKYT 051920Z AUTO 26012KT 9999 FEW070/// 14/11 Q1016
ENSN - Skien/Geiterygge, Norway
Distance from station: NO 153km
Opdateer: 09/11/2015 09:50
NOT Current
Helder
Helder
 Wind van SSW
Wind: SSW 19 km/h, Windvlaag: 41 km/h
Temperatuur: 7°C
Wind Chill: 4°C
Doupunt: 3°C
Humiditeit: 76%
Druk: 1000 hPa
Obsomming: Helder
Visibility: greater than 10 km
2015/11/09 08:50 ENSN 090850Z 20010G22KT 150V240 CAVOK 07/03 Q1000
 
ENZV - Stavanger/Sola(A, Norway
Distance from station: NW 166km
Opdateer: 05/07/2022 21:20
Meestal bewolk
Meestal bewolk
 Wind van NNW
Wind: NNW 31 km/h
Temperatuur: 13°C
Doupunt: 7°C
Humiditeit: 67%
Druk: 1018 hPa
Clouds: Meestal bewolk
Visibility: 10 km
Cloud details: Gedeeltelik bewolk 945 m
Meestal bewolk 2316 m
2022/07/05 19:20 ENZV 051920Z 33017KT 9999 SCT031 BKN076 13/07 Q1018 NOSIG
ENNO - Notodden, Norway
Distance from station: NNO 182km
Opdateer: 05/07/2022 18:50
NOT Current
Helder
Helder
 Wind van WNW
Wind: WNW 7 km/h
Temperatuur: 22°C
Doupunt: 6°C
Humiditeit: 36%
Druk: 1010 hPa
Obsomming: Helder
Visibility: greater than 10 km
2022/07/05 16:50 ENNO 051650Z 30004KT 230V020 CAVOK 22/06 Q1010
 
ENTO - Torp (civ/Nor-Af, Norway
Distance from station: NO 183km
Opdateer: 05/07/2022 21:20
Helder
Helder
 Wind van WSW
Wind: WSW 9 km/h
Temperatuur: 17°C
Doupunt: 9°C
Humiditeit: 59%
Druk: 1011 hPa
Obsomming: Helder
Visibility: greater than 10 km
2022/07/05 19:20 ENTO 051920Z 25005KT CAVOK 17/09 Q1011 NOSIG
EKKA - Karup (dan-Afb), Denmark
Distance from station: SSO 209km
Opdateer: 05/07/2022 21:20
Meestal bewolk
Meestal bewolk
 Wind van W
Wind: W 11 km/h
Temperatuur: 13°C
Doupunt: 11°C
Humiditeit: 88%
Druk: 1018 hPa
Clouds: Meestal bewolk
Visibility: 10 km
Cloud details: Meestal bewolk 1006 m
2022/07/05 19:20 EKKA 051920Z AUTO 26006KT 9999 BKN033/// 13/11 Q1018 RERA
 
ENHD - Haugesund/Karmoy, Norway
Distance from station: NW 216km
Opdateer: 05/07/2022 21:20
Meestal bewolk
Meestal bewolk
 Wind van NW
Wind: NW 28 km/h
Temperatuur: 13°C
Doupunt: 7°C
Humiditeit: 67%
Druk: 1018 hPa
Clouds: Meestal bewolk
Visibility: 10 km
Cloud details: Few Clouds 823 m
Meestal bewolk 1280 m
2022/07/05 19:20 ENHD 051920Z 31015KT 9999 FEW027 BKN042 13/07 Q1018
ENRY - Rygge (nor-Afb), Norway
Distance from station: NO 216km
Opdateer: 05/07/2022 21:20
Toegetrek
Toegetrek
 Wind van SW
Wind: SW 6 km/h
Temperatuur: 18°C
Doupunt: 9°C
Humiditeit: 56%
Druk: 1010 hPa
Clouds: Toegetrek
Visibility: 10 km
Cloud details: Toegetrek 2865 m
2022/07/05 19:20 ENRY 051920Z AUTO 23003KT 170V280 9999NDV OVC094/// 18/09 Q1010
 
ESGP - Goteborg/Save (a, Sweden
Distance from station: O 230km
Opdateer: 05/07/2022 21:20
Gedeeltelik bewolk
Gedeeltelik bewolk
 Wind van WSW
Wind: WSW 19 km/h
Temperatuur: 15°C
Doupunt: 10°C
Humiditeit: 72%
Druk: 1014 hPa
Clouds: Gedeeltelik bewolk
Visibility: 10 km
Cloud details: Gedeeltelik bewolk 853 m
2022/07/05 19:20 ESGP 051920Z 24010KT 210V270 9999 SCT028 15/10 Q1014
EKVJ - Stauning Airport, Denmark
Distance from station: S 233km
Opdateer: 05/07/2022 15:50
NOT Current
Meestal bewolk
Meestal bewolk
 Wind van W
Wind: W 31 km/h
Temperatuur: 16°C
Doupunt: 10°C
Humiditeit: 68%
Druk: 1018 hPa
Clouds: Meestal bewolk
Visibility: 10 km
Cloud details: Gedeeltelik bewolk 914 m
Meestal bewolk 1829 m
2022/07/05 13:50 EKVJ 051350Z 26017KT 9999 SCT030 BKN060 16/10 Q1018
 
ENSO - Stord/Soerstokke, Norway
Distance from station: NW 246km
Opdateer: 05/07/2022 18:50
NOT Current
Gedeeltelik bewolk
Gedeeltelik bewolk
 Wind van NW
Wind: NW 35 km/h
Temperatuur: 13°C
Doupunt: 7°C
Humiditeit: 67%
Druk: 1017 hPa
Clouds: Gedeeltelik bewolk
Visibility: 10 km
Cloud details: Few Clouds 610 m
Gedeeltelik bewolk 1067 m
2022/07/05 16:50 ENSO 051650Z 31019KT 9999 FEW020TCU SCT035 13/07 Q1017
EKAH - Tirstrup (civ/Mi, Denmark
Distance from station: SO 252km
Opdateer: 05/07/2022 21:20
Few Clouds
Few Clouds
 Wind van WSW
Wind: WSW 15 km/h
Temperatuur: 15°C
Doupunt: 10°C
Humiditeit: 72%
Druk: 1017 hPa
Clouds: Few Clouds
Visibility: 10 km
Cloud details: Few Clouds 1646 m
2022/07/05 19:20 EKAH 051920Z AUTO 25008KT 210V290 9999 FEW054/// 15/10 Q1017
 
ESGT - Trollhattan (pvt, Sweden
Distance from station: O 255km
Opdateer: 05/07/2022 21:20
Gedeeltelik bewolk
Gedeeltelik bewolk
 Wind van SW
Wind: SW 20 km/h
Temperatuur: 15°C
Doupunt: 10°C
Humiditeit: 72%
Druk: 1013 hPa
Clouds: Gedeeltelik bewolk
Visibility: 10 km
Cloud details: Few Clouds 884 m
Gedeeltelik bewolk 5486 m
2022/07/05 19:20 ESGT 051920Z AUTO 23011KT 9999 FEW029/// SCT180/// 15/10 Q1013
ESGG - Goteborg/Landvet, Sweden
Distance from station: O 257km
Opdateer: 05/07/2022 21:20
Few Clouds
Few Clouds
 Wind van WSW
Wind: WSW 17 km/h
Temperatuur: 13°C
Doupunt: 9°C
Humiditeit: 77%
Druk: 1014 hPa
Clouds: Few Clouds
Visibility: 10 km
Cloud details: Few Clouds 1036 m
2022/07/05 19:20 ESGG 051920Z 25009KT 9999 FEW034CB 13/09 Q1014 REDZ
 
EKBI - Billund Airport, Denmark
Distance from station: SSO 269km
Opdateer: 05/07/2022 21:20
Ligte reŽn, Meestal bewolk
Ligte reŽn, Meestal bewolk
 Wind van WSW
Wind: WSW 15 km/h
Temperatuur: 13°C
Doupunt: 9°C
Humiditeit: 77%
Druk: 1019 hPa
Obsomming: Ligte reŽn
Clouds: Meestal bewolk
Visibility: 10 km
Cloud details: Few Clouds 792 m
Meestal bewolk 1524 m
2022/07/05 19:20 EKBI 051920Z AUTO 25008KT 9999 -RA FEW026/// BKN050/// 13/09 Q1019
EKHN - Horns Rev B Heli, Denmark
Distance from station: S 274km
Opdateer: 09/08/2016 14:20
NOT Current
Few Clouds
Few Clouds
 Wind van WNW
Wind: WNW 50 km/h, Windvlaag: 72 km/h
Temperatuur: 14°C
Doupunt: 10°C
Humiditeit: 77%
Druk: 1018 hPa
Clouds: Few Clouds
Visibility: 10 km
Cloud details: Few Clouds 1158 m
Few Clouds 2438 m
2016/08/09 12:20 EKHN 091220Z AUTO 29027G39KT 270V340 9999NDV FEW038/// FEW080/// 14/10 Q1018
 
ESIB - Satenas (swe-Afb, Sweden
Distance from station: O 277km
Opdateer: 05/07/2022 21:20
Meestal bewolk
Meestal bewolk
 Wind van SW
Wind: SW 20 km/h
Temperatuur: 15°C
Doupunt: 11°C
Humiditeit: 77%
Druk: 1012 hPa
Clouds: Meestal bewolk
Visibility: 10 km
Cloud details: Meestal bewolk 3353 m
2022/07/05 19:20 ESIB 051920Z AUTO 22011KT 9999 BKN110/// 15/11 Q1012
EKHR - Horns Rev B Heli, Denmark
Distance from station: S 282km
Opdateer: 04/10/2016 06:20
NOT Current
Helder
Helder
 Wind van O
Wind: O 4 km/h
Temperatuur: 11°C
Doupunt: -49°C
Humiditeit: 0%
Druk: 1038 hPa
Clouds: Helder
Visibility: 10 km
2016/10/04 04:20 EKHR 040420Z AUTO 08002KT 9999NDV NCD 11/M49 Q1038